Meteo Giornale » Osservazioni meteo Stati Uniti (USA) » Oklahoma City Wiley Post
ore: 15:53 - Osservazioni Meteo Oklahoma City Wiley Post
Lat. 35° 32' N Lon. 97° 38' W Alt. 396 metri s.l.m.
38 °C
Nuvoloso
Temp. 24 Ore
26 °C
39 °C
Sud/Sud-Est
25.9 Km/h
Dew point 14 °C
Umidità 24 %
Visibilità 10 Km
Il sole sorge alle ore 07:02
Il sole tramonta alle ore 19:59
| Data e Ora | Cielo e Fenomeni | T °C | DP °C | Um. % | Pres. hPa | Vis. km | Vento km/h | |
|---|---|---|---|---|---|---|---|---|
| Oggi h: 15:53 | Nuvoloso | 38 | 14 | 24 | 1014 | 10 | S/SE 25.9 | |
| Oggi h: 14:53 | Nuvoloso | 38 | 15 | 25 | 1015 | 10 | S 27.8 | |
| Oggi h: 13:53 | Poco Nuvoloso | 37 | 15 | 27 | 1015 | 10 | S 11.1 | |
| Oggi h: 12:53 | Sereno | 37 | 16 | 28 | 1016 | 10 | S 24 | |
| Oggi h: 11:53 | Sereno | 36 | 18 | 34 | 1017 | 10 | S/SO 22.2 | |
| Oggi h: 10:53 | Sereno | 34 | 18 | 38 | 1017 | 10 | S/SO 24 | |
| Oggi h: 09:53 | Sereno | 32 | 18 | 43 | 1017 | 10 | S/SO 22.2 | |
| Oggi h: 08:53 | Sereno | 29 | 17 | 48 | 1017 | 10 | S/SO 20.3 | |
| Oggi h: 07:53 | Sereno | 27 | 16 | 50 | 1016 | 10 | S 16.7 | |
| Oggi h: 06:53 | Sereno | 26 | 16 | 54 | 1015 | 10 | S 14.8 | |
| Oggi h: 05:53 | Sereno | 26 | 15 | 50 | 1015 | 10 | S 18.5 | |
| Oggi h: 04:53 | Sereno | 27 | 15 | 47 | 1014 | 10 | S/SO 14.8 | |
| Oggi h: 03:53 | Sereno | 28 | 15 | 45 | 1014 | 10 | S 20.3 | |
| Oggi h: 02:53 | Sereno | 28 | 15 | 45 | 1014 | 10 | S 18.5 | |
| Oggi h: 01:53 | Sereno | 29 | 15 | 42 | 1014 | 10 | S 22.2 | |
| Oggi h: 00:53 | Sereno | 29 | 15 | 42 | 1014 | 10 | S 22.2 | |
| Ieri h: 23:53 | Sereno | 30 | 15 | 40 | 1014 | 10 | S 22.2 | |
| Ieri h: 22:53 | Sereno | 31 | 15 | 37 | 1013 | 10 | S 25.9 | |
| Ieri h: 21:53 | Sereno | 33 | 16 | 36 | 1013 | 10 | S 29.6 | |
| Ieri h: 20:53 | Sereno | 34 | 14 | 30 | 1012 | 10 | S/SE 22.2 | |
| Ieri h: 19:53 | Sereno | 35 | 14 | 28 | 1011 | 10 | S 18.5 | |
| Ieri h: 18:53 | Sereno | 37 | 14 | 25 | 1011 | 10 | S 22.2 | |
| Ieri h: 17:53 | Sereno | 38 | 14 | 24 | 1011 | 10 | S 24 | |
| Ieri h: 16:53 | Sereno | 39 | 14 | 22 | 1011 | 10 | S 18.5 | |



